Time;durP1;ratioP1;P1;durP2;ratioP2;P2;SDS_P1;SDS_P2;PMS_P1;PMS_P2;Temp;Humidity;BMP_temperature;BMP_pressure;BME280_temperature;BME280_humidity;BME280_pressure;Samples;Min_cycle;Max_cycle;Signal;HPM_P1;HPM_P2
2023/08/25 00:02:11;;;;;;;;;;;20.60;94.30;;;;;;5030332;28;20329;-71
2023/08/25 00:04:37;;;;;;;;;;;20.60;94.30;;;;;;5063500;28;19916;-71
2023/08/25 00:07:02;;;;;;;;;;;20.60;94.20;;;;;;5032965;28;19909;-71
2023/08/25 00:09:28;;;;;;;;;;;20.60;94.30;;;;;;5034972;28;19963;-71
2023/08/25 00:11:53;;;;;;;;;;;20.60;94.30;;;;;;5035264;28;19909;-71
2023/08/25 00:14:19;;;;;;;;;;;20.50;94.30;;;;;;5035160;28;20361;-71
2023/08/25 00:16:44;;;;;;;;;;;20.50;94.20;;;;;;5035016;28;19917;-71
2023/08/25 00:19:10;;;;;;;;;;;20.50;94.40;;;;;;5034795;28;19913;-71
2023/08/25 00:21:35;;;;;;;;;;;20.50;94.20;;;;;;5034928;28;20318;-70
2023/08/25 00:24:01;;;;;;;;;;;20.50;94.50;;;;;;5034958;28;19916;-70
2023/08/25 00:26:26;;;;;;;;;;;20.50;94.40;;;;;;5034998;28;20441;-70
2023/08/25 00:28:52;;;;;;;;;;;20.50;94.50;;;;;;5034732;28;19909;-70
2023/08/25 00:31:18;;;;;;;;;;;20.50;94.40;;;;;;5066760;28;19924;-71
2023/08/25 00:33:48;;;;;;;;;;;20.50;94.40;;;;;;5034889;28;20000;-70
2023/08/25 00:36:13;;;;;;;;;;;20.50;94.40;;;;;;5034637;28;19921;-70
2023/08/25 00:38:39;;;;;;;;;;;20.50;94.40;;;;;;5034516;28;20322;-71
2023/08/25 00:41:04;;;;;;;;;;;20.40;94.30;;;;;;5034606;28;19909;-71
2023/08/25 00:43:32;;;;;;;;;;;20.40;94.40;;;;;;5034483;28;19909;-70
2023/08/25 00:45:57;;;;;;;;;;;20.40;94.40;;;;;;5034516;28;20306;-70
2023/08/25 00:48:23;;;;;;;;;;;20.40;94.40;;;;;;5034369;28;20004;-70
2023/08/25 00:50:49;;;;;;;;;;;20.40;94.50;;;;;;5034429;28;19909;-70
2023/08/25 00:53:14;;;;;;;;;;;20.40;94.50;;;;;;5033165;28;20247;-70
2023/08/25 00:55:40;;;;;;;;;;;20.40;94.50;;;;;;5066088;28;19913;-70
2023/08/25 00:58:06;;;;;;;;;;;20.40;94.60;;;;;;5034130;28;20298;-70
2023/08/25 01:00:33;;;;;;;;;;;20.30;94.50;;;;;;5034254;28;19967;-71
2023/08/25 01:03:00;;;;;;;;;;;20.40;94.50;;;;;;5034233;28;19909;-70
2023/08/25 01:05:26;;;;;;;;;;;20.30;94.50;;;;;;5034108;28;19917;-70
2023/08/25 01:07:51;;;;;;;;;;;20.30;94.50;;;;;;5034125;28;20039;-70
2023/08/25 01:10:24;;;;;;;;;;;20.30;94.50;;;;;;5034074;28;19964;-70
2023/08/25 01:13:04;;;;;;;;;;;20.30;94.50;;;;;;5034125;28;19971;-70
2023/08/25 01:15:32;;;;;;;;;;;20.30;94.50;;;;;;5033985;28;19913;-70
2023/08/25 01:18:08;;;;;;;;;;;20.30;94.50;;;;;;5033128;28;19913;-70
2023/08/25 01:20:34;;;;;;;;;;;20.30;94.60;;;;;;5033962;28;19909;-70
2023/08/25 01:23:16;;;;;;;;;;;20.30;94.60;;;;;;5033965;28;20016;-70
2023/08/25 01:25:43;;;;;;;;;;;20.30;94.70;;;;;;5033806;28;20421;-70
2023/08/25 01:28:08;;;;;;;;;;;20.30;94.60;;;;;;5033543;28;20324;-71
2023/08/25 01:30:35;;;;;;;;;;;20.30;94.60;;;;;;5033556;28;19917;-70
2023/08/25 01:33:02;;;;;;;;;;;20.30;94.70;;;;;;5033635;28;19916;-70
2023/08/25 01:35:43;;;;;;;;;;;20.20;94.60;;;;;;5033440;28;19920;-70
2023/08/25 01:38:35;;;;;;;;;;;20.30;94.70;;;;;;5033469;28;19909;-70
2023/08/25 01:41:06;;;;;;;;;;;20.30;94.70;;;;;;5033165;28;20016;-70
2023/08/25 01:43:34;;;;;;;;;;;20.20;94.70;;;;;;5033531;28;19967;-70
2023/08/25 01:45:59;;;;;;;;;;;20.20;94.80;;;;;;5032195;28;20411;-70
2023/08/25 01:48:26;;;;;;;;;;;20.20;94.80;;;;;;5033348;28;19913;-70
2023/08/25 01:50:52;;;;;;;;;;;20.20;94.90;;;;;;5033360;28;20354;-70
2023/08/25 01:53:18;;;;;;;;;;;20.20;94.90;;;;;;5033466;28;19909;-70
2023/08/25 01:55:44;;;;;;;;;;;20.20;94.90;;;;;;5031773;28;19913;-70
2023/08/25 01:58:09;;;;;;;;;;;20.20;94.90;;;;;;5033068;28;20000;-70
2023/08/25 02:00:35;;;;;;;;;;;20.20;94.90;;;;;;5033185;28;19913;-70
2023/08/25 02:03:00;;;;;;;;;;;20.10;94.80;;;;;;5033245;28;19909;-71
2023/08/25 02:05:26;;;;;;;;;;;20.10;94.90;;;;;;5033081;28;19920;-70
2023/08/25 02:07:51;;;;;;;;;;;20.10;94.90;;;;;;5032988;28;19916;-70
2023/08/25 02:10:17;;;;;;;;;;;20.10;94.90;;;;;;5032882;28;19917;-70
2023/08/25 02:12:42;;;;;;;;;;;20.10;94.90;;;;;;5033003;28;19916;-70
2023/08/25 02:15:08;;;;;;;;;;;20.10;95.00;;;;;;5032797;28;20321;-70
2023/08/25 02:17:34;;;;;;;;;;;20.10;95.00;;;;;;5032729;28;19909;-70
2023/08/25 02:19:59;;;;;;;;;;;20.10;95.00;;;;;;5031415;28;19909;-71
2023/08/25 02:22:25;;;;;;;;;;;20.00;94.90;;;;;;5032741;28;19971;-71
2023/08/25 02:24:50;;;;;;;;;;;20.10;95.00;;;;;;5032455;28;19909;-71
2023/08/25 02:27:16;;;;;;;;;;;20.00;95.00;;;;;;5032403;28;19955;-71
2023/08/25 02:29:41;;;;;;;;;;;20.00;94.90;;;;;;5032160;28;20007;-70
2023/08/25 02:32:07;;;;;;;;;;;20.00;95.10;;;;;;5032744;28;19966;-71
2023/08/25 02:34:32;;;;;;;;;;;20.00;95.10;;;;;;5032586;28;19936;-71
2023/08/25 02:36:58;;;;;;;;;;;20.00;95.30;;;;;;5032627;28;19909;-71
2023/08/25 02:39:23;;;;;;;;;;;20.00;95.20;;;;;;5032257;28;20410;-71
2023/08/25 02:41:49;;;;;;;;;;;19.90;95.20;;;;;;5032611;28;19959;-71
2023/08/25 02:44:14;;;;;;;;;;;19.90;95.20;;;;;;5032571;28;19909;-70
2023/08/25 02:46:42;;;;;;;;;;;19.90;95.10;;;;;;5031295;28;19916;-70
2023/08/25 02:49:07;;;;;;;;;;;19.90;95.10;;;;;;5032214;28;19909;-70
2023/08/25 02:51:33;;;;;;;;;;;19.90;95.10;;;;;;5032502;28;19909;-71
2023/08/25 02:53:58;;;;;;;;;;;19.90;95.20;;;;;;5032258;28;19909;-71
2023/08/25 02:56:24;;;;;;;;;;;19.90;95.30;;;;;;5032307;28;20008;-70
2023/08/25 02:58:49;;;;;;;;;;;19.90;95.20;;;;;;5032268;28;20000;-71
2023/08/25 03:01:15;;;;;;;;;;;19.90;95.30;;;;;;5031825;28;20334;-70
2023/08/25 03:03:40;;;;;;;;;;;19.90;95.40;;;;;;5031658;28;19917;-71
2023/08/25 03:06:06;;;;;;;;;;;19.80;95.50;;;;;;5031715;28;20288;-70
2023/08/25 03:08:31;;;;;;;;;;;19.80;95.60;;;;;;5031053;28;19999;-70
2023/08/25 03:11:00;;;;;;;;;;;19.80;95.60;;;;;;5031513;28;19955;-70
2023/08/25 03:13:26;;;;;;;;;;;19.80;95.60;;;;;;5032164;28;19921;-70
2023/08/25 03:15:54;;;;;;;;;;;19.80;95.40;;;;;;5032195;28;19913;-71
2023/08/25 03:18:19;;;;;;;;;;;19.80;95.30;;;;;;5032040;28;19909;-71
2023/08/25 03:20:49;;;;;;;;;;;19.80;95.30;;;;;;5032084;28;19914;-71
2023/08/25 03:23:14;;;;;;;;;;;19.80;95.40;;;;;;5032266;28;20000;-70
2023/08/25 03:25:40;;;;;;;;;;;19.80;95.60;;;;;;5032052;28;19960;-70
2023/08/25 03:28:05;;;;;;;;;;;19.80;95.60;;;;;;5031915;28;19909;-70
2023/08/25 03:30:31;;;;;;;;;;;19.70;95.60;;;;;;5031904;28;19920;-71
2023/08/25 03:32:56;;;;;;;;;;;19.70;95.50;;;;;;5031985;28;20285;-70
2023/08/25 03:35:22;;;;;;;;;;;19.70;95.60;;;;;;5031831;28;19913;-70
2023/08/25 03:37:48;;;;;;;;;;;19.70;95.70;;;;;;5031770;28;19944;-70
2023/08/25 03:40:14;;;;;;;;;;;19.70;95.70;;;;;;5031771;28;19978;-71
2023/08/25 03:42:39;;;;;;;;;;;19.70;95.70;;;;;;5034309;28;20003;-70
2023/08/25 03:45:05;;;;;;;;;;;19.70;95.70;;;;;;5035890;28;20262;-75
2023/08/25 03:47:31;;;;;;;;;;;19.70;95.50;;;;;;5035001;28;19909;-75
2023/08/25 03:49:57;;;;;;;;;;;19.70;95.60;;;;;;5035573;28;19909;-75
2023/08/25 03:52:22;;;;;;;;;;;19.60;95.60;;;;;;5067493;28;19913;-75
2023/08/25 03:54:48;;;;;;;;;;;19.60;95.80;;;;;;5035354;28;20014;-75
2023/08/25 03:57:13;;;;;;;;;;;19.60;95.80;;;;;;5035518;28;19913;-75
2023/08/25 03:59:39;;;;;;;;;;;19.60;95.90;;;;;;5035414;28;20346;-75
2023/08/25 04:02:04;;;;;;;;;;;19.60;95.90;;;;;;5035568;28;19909;-75
2023/08/25 04:04:31;;;;;;;;;;;19.60;95.80;;;;;;5035389;28;19909;-75
2023/08/25 04:06:57;;;;;;;;;;;19.60;95.80;;;;;;5034081;28;19959;-75
2023/08/25 04:09:22;;;;;;;;;;;19.60;95.90;;;;;;5035165;28;19912;-75
2023/08/25 04:11:48;;;;;;;;;;;19.60;95.90;;;;;;5035405;28;19909;-75
2023/08/25 04:14:14;;;;;;;;;;;19.60;95.90;;;;;;5034038;28;19909;-75
2023/08/25 04:16:40;;;;;;;;;;;19.60;95.90;;;;;;5067340;28;19914;-75
2023/08/25 04:19:05;;;;;;;;;;;19.50;96.00;;;;;;5034990;28;19920;-75
2023/08/25 04:21:31;;;;;;;;;;;19.50;96.00;;;;;;5035148;28;20226;-75
2023/08/25 04:23:56;;;;;;;;;;;19.50;96.00;;;;;;5037838;28;19909;-71
2023/08/25 04:26:22;;;;;;;;;;;19.50;96.00;;;;;;5033710;28;20249;-70
2023/08/25 04:28:47;;;;;;;;;;;19.50;96.00;;;;;;5034778;28;20339;-71
2023/08/25 04:31:13;;;;;;;;;;;19.50;96.00;;;;;;5034810;28;20309;-70
2023/08/25 04:33:38;;;;;;;;;;;19.50;96.00;;;;;;5034842;28;19909;-71
2023/08/25 04:36:04;;;;;;;;;;;19.40;96.00;;;;;;5034748;28;19925;-71
2023/08/25 04:38:29;;;;;;;;;;;19.50;96.00;;;;;;5034683;28;19913;-70
2023/08/25 04:40:55;;;;;;;;;;;19.50;96.10;;;;;;5034894;28;19919;-70
2023/08/25 04:43:20;;;;;;;;;;;19.40;96.00;;;;;;5034765;28;19915;-71
2023/08/25 04:45:46;;;;;;;;;;;19.40;96.10;;;;;;5034738;28;19935;-71
2023/08/25 04:48:12;;;;;;;;;;;19.40;96.00;;;;;;5034750;28;19910;-75
2023/08/25 04:50:38;;;;;;;;;;;19.40;96.00;;;;;;5033160;28;19909;-75
2023/08/25 04:53:03;;;;;;;;;;;19.40;96.10;;;;;;5033371;28;19909;-75
2023/08/25 04:55:29;;;;;;;;;;;19.40;95.90;;;;;;5034213;28;20285;-75
2023/08/25 04:57:55;;;;;;;;;;;19.40;95.90;;;;;;5034394;28;20515;-75
2023/08/25 05:00:21;;;;;;;;;;;19.40;96.00;;;;;;5034391;28;20378;-75
2023/08/25 05:02:48;;;;;;;;;;;19.40;96.10;;;;;;5034394;28;19945;-75
2023/08/25 05:05:14;;;;;;;;;;;19.30;96.00;;;;;;5034272;28;20281;-75
2023/08/25 05:07:40;;;;;;;;;;;19.30;96.00;;;;;;5065804;28;19909;-75
2023/08/25 05:10:06;;;;;;;;;;;19.30;96.00;;;;;;5031903;28;20000;-75
2023/08/25 05:12:32;;;;;;;;;;;19.30;96.00;;;;;;5034037;28;19944;-75
2023/08/25 05:14:57;;;;;;;;;;;19.30;96.00;;;;;;5034062;28;19913;-75
2023/08/25 05:17:23;;;;;;;;;;;19.30;96.00;;;;;;5033901;28;20007;-75
2023/08/25 05:19:49;;;;;;;;;;;19.30;96.00;;;;;;5034051;28;19909;-75
2023/08/25 05:22:14;;;;;;;;;;;19.30;96.10;;;;;;5033930;28;19916;-75
2023/08/25 05:24:40;;;;;;;;;;;19.40;96.10;;;;;;5033852;28;19909;-75
2023/08/25 05:27:05;;;;;;;;;;;19.40;96.10;;;;;;5065960;28;20384;-75
2023/08/25 05:29:31;;;;;;;;;;;19.40;96.20;;;;;;5033517;28;20270;-75
2023/08/25 05:31:56;;;;;;;;;;;19.30;96.20;;;;;;5033836;28;19909;-75
2023/08/25 05:34:22;;;;;;;;;;;19.30;96.10;;;;;;5033632;28;19967;-75
2023/08/25 05:36:47;;;;;;;;;;;19.30;96.10;;;;;;5033686;28;19913;-75
2023/08/25 05:39:13;;;;;;;;;;;19.30;96.10;;;;;;5033289;28;19912;-75
2023/08/25 05:41:38;;;;;;;;;;;19.30;96.10;;;;;;5033588;28;19964;-75
2023/08/25 05:44:04;;;;;;;;;;;19.30;96.10;;;;;;5033438;28;19916;-75
2023/08/25 05:46:30;;;;;;;;;;;19.30;96.10;;;;;;5033469;28;19909;-75
2023/08/25 05:48:56;;;;;;;;;;;19.30;96.10;;;;;;5033372;28;19913;-75
2023/08/25 05:51:21;;;;;;;;;;;19.30;96.10;;;;;;5033373;28;19921;-75
2023/08/25 05:53:47;;;;;;;;;;;19.40;96.20;;;;;;5033388;28;19909;-75
2023/08/25 05:56:13;;;;;;;;;;;19.40;96.10;;;;;;5033277;28;19913;-70
2023/08/25 05:58:38;;;;;;;;;;;19.40;96.00;;;;;;5033188;28;19909;-70
2023/08/25 06:01:04;;;;;;;;;;;19.30;96.10;;;;;;5033106;28;20250;-71
2023/08/25 06:03:30;;;;;;;;;;;19.30;96.10;;;;;;5065065;28;19909;-70
2023/08/25 06:05:55;;;;;;;;;;;19.30;96.10;;;;;;5031307;28;19949;-70
2023/08/25 06:08:21;;;;;;;;;;;19.30;96.10;;;;;;5032807;28;20363;-70
2023/08/25 06:10:47;;;;;;;;;;;19.30;96.20;;;;;;5032948;28;19955;-71
2023/08/25 06:13:13;;;;;;;;;;;19.40;96.10;;;;;;5031066;28;20473;-71
2023/08/25 06:15:38;;;;;;;;;;;19.40;96.10;;;;;;5032114;28;20269;-70
2023/08/25 06:18:04;;;;;;;;;;;19.40;96.20;;;;;;5032250;28;20015;-71
2023/08/25 06:20:33;;;;;;;;;;;19.40;96.00;;;;;;5031962;28;19959;-71
2023/08/25 06:22:58;;;;;;;;;;;19.40;96.00;;;;;;5032677;28;19916;-70
2023/08/25 06:25:24;;;;;;;;;;;19.40;96.10;;;;;;5032937;28;19909;-75
2023/08/25 06:27:50;;;;;;;;;;;19.50;96.10;;;;;;5032600;28;19948;-75
2023/08/25 06:30:16;;;;;;;;;;;19.50;96.00;;;;;;5032385;28;19921;-75
2023/08/25 06:32:42;;;;;;;;;;;19.50;96.00;;;;;;5032745;28;19910;-75
2023/08/25 06:35:08;;;;;;;;;;;19.50;95.90;;;;;;5032448;28;19936;-75
2023/08/25 06:37:33;;;;;;;;;;;19.50;95.80;;;;;;5032415;28;19909;-75
2023/08/25 06:39:59;;;;;;;;;;;19.60;95.90;;;;;;5032462;28;20259;-75
2023/08/25 06:42:24;;;;;;;;;;;19.60;95.90;;;;;;5032459;28;19909;-75
2023/08/25 06:44:50;;;;;;;;;;;19.60;95.90;;;;;;5032439;28;19917;-75
2023/08/25 06:47:15;;;;;;;;;;;19.60;95.90;;;;;;5032422;28;19951;-75
2023/08/25 06:49:41;;;;;;;;;;;19.60;95.90;;;;;;5032331;28;20308;-75
2023/08/25 06:52:06;;;;;;;;;;;19.60;96.00;;;;;;5064443;28;19967;-75
2023/08/25 06:54:33;;;;;;;;;;;19.70;95.90;;;;;;5032090;28;19959;-75
2023/08/25 06:56:58;;;;;;;;;;;19.70;95.90;;;;;;5032182;28;19920;-75
2023/08/25 06:59:24;;;;;;;;;;;19.70;95.90;;;;;;5032018;28;20313;-75
2023/08/25 07:01:49;;;;;;;;;;;19.70;95.80;;;;;;5032218;28;19909;-75
2023/08/25 07:04:15;;;;;;;;;;;19.80;95.80;;;;;;5032191;28;20300;-75
2023/08/25 07:06:40;;;;;;;;;;;19.90;95.80;;;;;;5031938;28;19919;-75
2023/08/25 07:09:06;;;;;;;;;;;19.90;95.80;;;;;;5031679;28;19909;-75
2023/08/25 07:11:32;;;;;;;;;;;19.90;95.70;;;;;;5032149;28;19916;-75
2023/08/25 07:13:58;;;;;;;;;;;19.90;95.70;;;;;;5032223;28;19913;-75
2023/08/25 07:16:24;;;;;;;;;;;19.90;95.70;;;;;;5032514;28;19919;-75
2023/08/25 07:18:50;;;;;;;;;;;19.90;95.70;;;;;;5036178;28;20004;-75
2023/08/25 07:21:16;;;;;;;;;;;20.00;95.70;;;;;;5035016;28;19913;-75
2023/08/25 07:23:42;;;;;;;;;;;20.00;95.70;;;;;;5036162;28;19916;-75
2023/08/25 07:26:08;;;;;;;;;;;20.00;95.70;;;;;;5036099;28;19909;-74
2023/08/25 07:28:34;;;;;;;;;;;20.00;95.70;;;;;;5035946;28;19916;-75
2023/08/25 07:31:00;;;;;;;;;;;20.10;95.70;;;;;;5034784;28;19918;-75
2023/08/25 07:33:26;;;;;;;;;;;20.10;95.60;;;;;;5036093;28;19952;-75
2023/08/25 07:35:51;;;;;;;;;;;20.20;95.60;;;;;;5034540;28;20327;-74
2023/08/25 07:38:17;;;;;;;;;;;20.20;95.60;;;;;;5035865;28;19910;-75
2023/08/25 07:40:42;;;;;;;;;;;20.20;95.60;;;;;;5035927;28;20340;-75
2023/08/25 07:43:08;;;;;;;;;;;20.20;95.60;;;;;;5034810;28;19909;-74
2023/08/25 07:45:35;;;;;;;;;;;20.20;95.60;;;;;;5068203;28;19909;-74
2023/08/25 07:48:01;;;;;;;;;;;20.20;95.60;;;;;;5035728;28;20010;-75
2023/08/25 07:50:27;;;;;;;;;;;20.20;95.60;;;;;;5035737;28;20357;-75
2023/08/25 07:52:53;;;;;;;;;;;20.10;95.70;;;;;;5035902;28;19909;-74
2023/08/25 07:55:18;;;;;;;;;;;20.10;95.70;;;;;;5035372;28;20024;-75
2023/08/25 07:57:46;;;;;;;;;;;20.10;95.80;;;;;;5035466;28;19910;-75
2023/08/25 08:00:14;;;;;;;;;;;20.10;95.90;;;;;;5035583;28;20316;-74
2023/08/25 08:02:40;;;;;;;;;;;20.10;95.80;;;;;;5035589;28;20289;-74
2023/08/25 08:05:05;;;;;;;;;;;20.10;95.80;;;;;;5035058;28;19913;-75
2023/08/25 08:07:31;;;;;;;;;;;20.10;95.80;;;;;;5034846;28;19916;-75
2023/08/25 08:09:57;;;;;;;;;;;20.10;95.80;;;;;;5035152;28;19931;-75
2023/08/25 08:12:22;;;;;;;;;;;20.10;95.80;;;;;;5035105;28;20270;-74
2023/08/25 08:14:48;;;;;;;;;;;20.00;95.90;;;;;;5034921;28;19966;-74
2023/08/25 08:17:13;;;;;;;;;;;20.10;96.00;;;;;;5035057;28;20003;-75
2023/08/25 08:19:39;;;;;;;;;;;20.00;96.00;;;;;;5034750;28;19921;-75
2023/08/25 08:22:05;;;;;;;;;;;20.00;95.90;;;;;;5034917;28;20324;-75
2023/08/25 08:24:30;;;;;;;;;;;20.00;95.90;;;;;;5066857;28;19936;-75
2023/08/25 08:26:57;;;;;;;;;;;20.00;96.00;;;;;;5034624;28;20008;-74
2023/08/25 08:29:22;;;;;;;;;;;20.00;96.00;;;;;;5032967;28;20329;-74
2023/08/25 08:31:47;;;;;;;;;;;20.00;96.00;;;;;;5034736;28;19916;-74
2023/08/25 08:34:13;;;;;;;;;;;20.00;96.00;;;;;;5066730;28;19952;-74
2023/08/25 08:36:39;;;;;;;;;;;20.00;96.00;;;;;;5034769;28;19913;-74
2023/08/25 08:39:06;;;;;;;;;;;20.00;96.00;;;;;;5066518;28;19996;-74
2023/08/25 08:41:32;;;;;;;;;;;20.00;96.00;;;;;;5034438;28;19916;-74
2023/08/25 08:43:59;;;;;;;;;;;19.90;96.00;;;;;;5034423;28;19921;-74
2023/08/25 08:46:25;;;;;;;;;;;19.90;96.00;;;;;;5033164;28;19931;-74
2023/08/25 08:48:51;;;;;;;;;;;20.00;96.10;;;;;;5034415;28;19909;-74
2023/08/25 08:51:17;;;;;;;;;;;20.00;96.10;;;;;;5034351;28;19909;-74
2023/08/25 08:53:43;;;;;;;;;;;19.90;96.10;;;;;;5034444;28;19915;-74
2023/08/25 08:56:09;;;;;;;;;;;20.00;96.10;;;;;;5032738;28;19913;-74
2023/08/25 08:58:34;;;;;;;;;;;19.90;96.10;;;;;;5032848;28;19911;-74
2023/08/25 09:01:00;;;;;;;;;;;19.90;96.00;;;;;;5034096;28;19909;-74
2023/08/25 09:03:29;;;;;;;;;;;20.00;96.10;;;;;;5033986;28;19913;-74
2023/08/25 09:05:57;;;;;;;;;;;19.90;96.00;;;;;;5033958;28;20373;-74
2023/08/25 09:08:24;;;;;;;;;;;19.90;96.00;;;;;;5033702;28;19912;-74
2023/08/25 09:10:49;;;;;;;;;;;19.90;96.00;;;;;;5033436;28;20001;-74
2023/08/25 09:13:15;;;;;;;;;;;19.90;96.10;;;;;;5033230;28;20421;-74
2023/08/25 09:15:40;;;;;;;;;;;20.00;96.20;;;;;;5033130;28;20325;-74
2023/08/25 09:18:07;;;;;;;;;;;20.00;96.30;;;;;;5033051;28;20044;-74
2023/08/25 09:20:33;;;;;;;;;;;20.00;96.30;;;;;;5033000;28;19909;-74
2023/08/25 09:22:59;;;;;;;;;;;20.00;96.30;;;;;;5033288;28;19909;-74
2023/08/25 09:25:25;;;;;;;;;;;20.00;96.20;;;;;;5031532;28;19909;-74
2023/08/25 09:27:57;;;;;;;;;;;20.00;96.30;;;;;;5033034;28;19936;-74
2023/08/25 09:30:32;;;;;;;;;;;20.10;96.30;;;;;;5033561;28;19917;-74
2023/08/25 09:33:01;;;;;;;;;;;20.10;96.20;;;;;;5033509;28;19909;-74
2023/08/25 09:35:28;;;;;;;;;;;20.10;96.30;;;;;;5032935;28;20009;-74
2023/08/25 09:37:53;;;;;;;;;;;20.10;96.20;;;;;;5032707;28;19916;-74
2023/08/25 09:40:19;;;;;;;;;;;20.10;96.20;;;;;;5032034;28;20325;-74
2023/08/25 09:42:44;;;;;;;;;;;20.10;96.30;;;;;;5032844;28;19948;-74
2023/08/25 09:45:14;;;;;;;;;;;20.10;96.30;;;;;;5033205;28;19945;-74
2023/08/25 09:47:42;;;;;;;;;;;20.10;96.50;;;;;;5033354;28;19909;-74
2023/08/25 09:50:12;;;;;;;;;;;20.20;96.60;;;;;;5033308;28;19913;-74
2023/08/25 09:52:39;;;;;;;;;;;20.20;96.60;;;;;;5033352;28;19917;-74
2023/08/25 09:55:05;;;;;;;;;;;20.20;96.40;;;;;;5033025;28;20322;-74
2023/08/25 09:57:31;;;;;;;;;;;20.20;96.30;;;;;;5032985;28;19996;-73
2023/08/25 09:59:57;;;;;;;;;;;20.10;96.30;;;;;;5033041;28;20032;-74
2023/08/25 10:02:22;;;;;;;;;;;20.20;96.40;;;;;;5033186;28;20273;-74
2023/08/25 10:04:48;;;;;;;;;;;20.20;96.40;;;;;;5031626;28;19909;-74
2023/08/25 10:07:14;;;;;;;;;;;20.20;96.30;;;;;;5033030;28;20000;-74
2023/08/25 10:09:39;;;;;;;;;;;20.20;96.50;;;;;;5032814;28;19945;-74
2023/08/25 10:12:07;;;;;;;;;;;20.20;96.50;;;;;;5032871;28;20381;-74
2023/08/25 10:14:33;;;;;;;;;;;20.20;96.50;;;;;;5032803;28;19909;-74
2023/08/25 10:17:00;;;;;;;;;;;20.20;96.40;;;;;;5032796;28;19971;-74
2023/08/25 10:19:31;;;;;;;;;;;20.20;96.40;;;;;;5032619;28;20419;-74
2023/08/25 10:21:57;;;;;;;;;;;20.20;96.50;;;;;;5032529;28;19916;-74
2023/08/25 10:24:23;;;;;;;;;;;20.20;96.50;;;;;;5032769;28;19909;-74
2023/08/25 10:26:50;;;;;;;;;;;20.20;96.50;;;;;;5032515;28;19913;-74
2023/08/25 10:29:17;;;;;;;;;;;20.20;96.50;;;;;;5032384;28;19976;-73
2023/08/25 10:31:49;;;;;;;;;;;20.20;96.40;;;;;;5032493;28;19981;-74
2023/08/25 10:34:33;;;;;;;;;;;20.20;96.40;;;;;;5032360;28;19915;-73
2023/08/25 10:37:10;;;;;;;;;;;20.20;96.50;;;;;;5032193;28;19956;-73
2023/08/25 10:39:49;;;;;;;;;;;20.10;96.40;;;;;;5030916;28;19921;-73
2023/08/25 10:42:22;;;;;;;;;;;20.10;96.40;;;;;;5032352;28;19944;-73
2023/08/25 10:44:52;;;;;;;;;;;20.10;96.40;;;;;;5032329;28;19909;-73
2023/08/25 10:47:18;;;;;;;;;;;20.10;96.40;;;;;;5032320;28;19969;-73
2023/08/25 10:49:44;;;;;;;;;;;20.10;96.40;;;;;;5031938;28;20489;-73
2023/08/25 10:52:17;;;;;;;;;;;20.10;96.40;;;;;;5032119;28;20004;-73
2023/08/25 10:54:44;;;;;;;;;;;20.10;96.40;;;;;;5032014;28;19909;-74
2023/08/25 10:57:19;;;;;;;;;;;20.10;96.40;;;;;;5032076;28;20000;-73
2023/08/25 10:59:54;;;;;;;;;;;20.10;96.50;;;;;;5031975;28;19916;-73
2023/08/25 11:02:35;;;;;;;;;;;20.10;96.50;;;;;;5032042;28;19966;-73
2023/08/25 11:05:19;;;;;;;;;;;20.10;96.50;;;;;;5032117;28;19909;-73
2023/08/25 11:07:45;;;;;;;;;;;20.10;96.50;;;;;;5062788;28;20004;-73
2023/08/25 11:10:11;;;;;;;;;;;20.10;96.40;;;;;;5031644;28;19945;-73
2023/08/25 11:12:36;;;;;;;;;;;20.00;96.40;;;;;;5031970;28;19909;-73
2023/08/25 11:15:02;;;;;;;;;;;20.10;96.50;;;;;;5031685;28;20263;-73
2023/08/25 11:17:27;;;;;;;;;;;20.00;96.50;;;;;;5031633;28;19909;-73
2023/08/25 11:19:53;;;;;;;;;;;20.10;96.50;;;;;;5031618;28;20443;-73
2023/08/25 11:22:20;;;;;;;;;;;20.00;96.60;;;;;;5031713;28;19909;-74
2023/08/25 11:24:46;;;;;;;;;;;20.00;96.60;;;;;;5031805;28;19913;-73
2023/08/25 11:27:12;;;;;;;;;;;20.00;96.50;;;;;;5031946;28;20364;-73
2023/08/25 11:29:39;;;;;;;;;;;20.00;96.50;;;;;;5031697;28;20251;-73
2023/08/25 11:32:05;;;;;;;;;;;20.00;96.60;;;;;;5031611;28;19909;-74
2023/08/25 11:34:33;;;;;;;;;;;20.00;96.60;;;;;;5031721;28;19915;-73
2023/08/25 11:36:59;;;;;;;;;;;20.00;96.60;;;;;;5031789;28;19913;-73
2023/08/25 11:39:25;;;;;;;;;;;20.00;96.60;;;;;;5030276;28;19920;-73
2023/08/25 11:41:53;;;;;;;;;;;20.00;96.50;;;;;;5031798;28;19962;-74
2023/08/25 11:44:19;;;;;;;;;;;20.10;96.50;;;;;;5031710;28;20410;-73
2023/08/25 11:46:45;;;;;;;;;;;20.10;96.70;;;;;;5031977;28;19920;-71
2023/08/25 11:49:10;;;;;;;;;;;20.10;96.70;;;;;;5031550;28;19916;-71
2023/08/25 11:51:36;;;;;;;;;;;20.10;96.70;;;;;;5031536;28;19916;-71
2023/08/25 11:54:02;;;;;;;;;;;20.10;96.70;;;;;;5031643;28;19909;-71
2023/08/25 11:56:28;;;;;;;;;;;20.10;96.70;;;;;;5063422;28;19936;-71
2023/08/25 11:58:53;;;;;;;;;;;20.10;96.80;;;;;;5031401;28;20338;-71
2023/08/25 12:01:19;;;;;;;;;;;20.20;96.80;;;;;;5030316;28;19909;-71
2023/08/25 12:03:45;;;;;;;;;;;20.20;96.80;;;;;;5033917;28;19917;-71
2023/08/25 12:06:11;;;;;;;;;;;20.20;96.60;;;;;;5035251;28;19909;-71
2023/08/25 12:08:39;;;;;;;;;;;20.20;96.50;;;;;;5034544;28;19913;-71
2023/08/25 12:11:05;;;;;;;;;;;20.30;96.70;;;;;;5034976;28;19909;-71
2023/08/25 12:13:32;;;;;;;;;;;20.40;96.60;;;;;;5035262;28;19966;-71
2023/08/25 12:15:58;;;;;;;;;;;20.40;96.70;;;;;;5034755;28;19939;-71
2023/08/25 12:18:31;;;;;;;;;;;20.50;96.60;;;;;;5034884;28;19909;-71
2023/08/25 12:20:56;;;;;;;;;;;20.60;96.60;;;;;;5035093;28;19948;-71
2023/08/25 12:23:22;;;;;;;;;;;20.60;96.40;;;;;;5034974;28;19916;-71
2023/08/25 12:25:47;;;;;;;;;;;20.70;96.40;;;;;;5034854;28;19935;-71
2023/08/25 12:28:13;;;;;;;;;;;20.70;96.30;;;;;;5033898;28;20000;-71
2023/08/25 12:30:38;;;;;;;;;;;20.80;96.30;;;;;;5032783;28;19917;-71
2023/08/25 12:33:05;;;;;;;;;;;20.80;96.30;;;;;;5033080;28;19909;-71
2023/08/25 12:35:31;;;;;;;;;;;20.90;96.20;;;;;;5033764;28;20285;-71
2023/08/25 12:37:57;;;;;;;;;;;21.00;96.20;;;;;;5034132;28;19968;-71
2023/08/25 12:40:22;;;;;;;;;;;21.00;96.10;;;;;;5034452;28;19951;-71
2023/08/25 12:42:51;;;;;;;;;;;21.10;96.10;;;;;;5034675;28;20330;-71
2023/08/25 12:45:17;;;;;;;;;;;21.10;96.00;;;;;;5034538;28;20373;-71
2023/08/25 12:47:43;;;;;;;;;;;21.20;96.00;;;;;;5034332;28;19913;-71
2023/08/25 12:50:08;;;;;;;;;;;21.20;96.00;;;;;;5033225;28;19909;-71
2023/08/25 12:52:36;;;;;;;;;;;21.30;96.00;;;;;;5034484;28;19916;-71
2023/08/25 12:55:02;;;;;;;;;;;21.30;95.90;;;;;;5034163;28;19910;-71
2023/08/25 12:57:27;;;;;;;;;;;21.40;96.00;;;;;;5034191;28;19962;-71
2023/08/25 12:59:53;;;;;;;;;;;21.40;95.90;;;;;;5034193;28;19909;-71
2023/08/25 13:02:18;;;;;;;;;;;21.40;96.10;;;;;;5034244;28;19976;-71
2023/08/25 13:04:44;;;;;;;;;;;21.40;95.80;;;;;;5033906;28;19984;-71
2023/08/25 13:07:10;;;;;;;;;;;21.40;95.80;;;;;;5033961;28;19916;-71
2023/08/25 13:09:35;;;;;;;;;;;21.40;95.70;;;;;;5033877;28;19928;-71
2023/08/25 13:12:01;;;;;;;;;;;21.40;95.80;;;;;;5033817;28;20395;-71
2023/08/25 13:14:26;;;;;;;;;;;21.40;95.90;;;;;;5032740;28;20348;-71
2023/08/25 13:16:52;;;;;;;;;;;21.40;96.00;;;;;;5033642;28;19913;-71
2023/08/25 13:19:18;;;;;;;;;;;21.40;96.10;;;;;;5033620;28;19909;-71
2023/08/25 13:21:43;;;;;;;;;;;21.50;95.90;;;;;;5032531;28;19909;-71
2023/08/25 13:24:09;;;;;;;;;;;21.50;95.90;;;;;;5033715;28;19910;-71
2023/08/25 13:26:34;;;;;;;;;;;21.50;95.90;;;;;;5033022;28;19913;-71
2023/08/25 13:29:02;;;;;;;;;;;21.50;95.90;;;;;;5032914;28;19909;-71
2023/08/25 13:31:28;;;;;;;;;;;21.60;96.00;;;;;;5033473;28;19988;-71
2023/08/25 13:33:54;;;;;;;;;;;21.60;95.90;;;;;;5033551;28;19999;-71
2023/08/25 13:36:21;;;;;;;;;;;21.60;96.00;;;;;;5033513;28;19913;-71
2023/08/25 13:38:46;;;;;;;;;;;21.60;95.90;;;;;;5033560;28;19909;-71
2023/08/25 13:41:14;;;;;;;;;;;21.70;95.70;;;;;;5032804;28;20425;-71
2023/08/25 13:43:39;;;;;;;;;;;21.80;95.80;;;;;;5033653;28;19963;-71
2023/08/25 13:46:05;;;;;;;;;;;21.80;95.80;;;;;;5033466;28;19932;-71
2023/08/25 13:48:32;;;;;;;;;;;21.90;95.80;;;;;;5033345;28;19967;-71
2023/08/25 13:50:58;;;;;;;;;;;21.90;95.60;;;;;;5033452;28;19913;-71
2023/08/25 13:53:23;;;;;;;;;;;22.00;95.50;;;;;;5032146;28;20347;-71
2023/08/25 13:55:49;;;;;;;;;;;22.10;95.40;;;;;;5033099;28;19996;-71
2023/08/25 13:58:14;;;;;;;;;;;22.20;95.50;;;;;;5032978;28;19958;-71
2023/08/25 14:00:40;;;;;;;;;;;22.30;95.20;;;;;;5031872;28;20374;-71
2023/08/25 14:03:06;;;;;;;;;;;22.40;95.00;;;;;;5032621;28;20349;-71
2023/08/25 14:05:31;;;;;;;;;;;22.50;95.20;;;;;;5032788;28;19916;-71
2023/08/25 14:07:57;;;;;;;;;;;22.50;94.90;;;;;;5032708;28;20000;-71
2023/08/25 14:10:25;;;;;;;;;;;22.50;95.10;;;;;;5031431;28;19909;-71
2023/08/25 14:12:51;;;;;;;;;;;22.50;95.20;;;;;;5032825;28;19909;-71